createdAt,value
2023-01-08T00:02:21.588Z,18.20
2023-01-08T00:04:48.500Z,16.17
2023-01-08T00:07:15.107Z,16.53
2023-01-08T00:09:41.759Z,18.10
2023-01-08T00:12:08.347Z,19.27
2023-01-08T00:14:34.949Z,20.07
2023-01-08T00:17:02.999Z,23.13
2023-01-08T00:19:31.122Z,21.53
2023-01-08T00:21:57.711Z,21.50
2023-01-08T00:24:24.583Z,20.33
2023-01-08T00:26:51.192Z,21.40
2023-01-08T00:29:17.827Z,22.83
2023-01-08T00:31:45.558Z,20.77
2023-01-08T00:34:12.143Z,21.37
2023-01-08T00:36:39.186Z,21.43
2023-01-08T00:39:05.810Z,21.87
2023-01-08T00:41:33.532Z,22.47
2023-01-08T00:44:00.139Z,26.33
2023-01-08T00:46:27.033Z,25.67
2023-01-08T00:48:53.621Z,23.20
2023-01-08T00:51:20.237Z,23.87
2023-01-08T00:53:47.074Z,25.20
2023-01-08T00:56:13.661Z,23.83
2023-01-08T00:58:40.564Z,23.33
2023-01-08T01:01:14.983Z,22.93
2023-01-08T01:03:42.936Z,22.47
2023-01-08T01:06:11.971Z,22.23
2023-01-08T01:08:38.609Z,21.73
2023-01-08T01:11:22.573Z,23.13
2023-01-08T01:13:49.419Z,21.07
2023-01-08T01:16:16.487Z,21.17
2023-01-08T01:18:43.738Z,22.80
2023-01-08T01:21:22.601Z,23.30
2023-01-08T01:23:49.615Z,20.73
2023-01-08T01:26:17.787Z,22.20
2023-01-08T01:28:47.140Z,20.93
2023-01-08T01:31:13.840Z,20.77
2023-01-08T01:33:41.511Z,23.83
2023-01-08T01:36:09.795Z,24.07
2023-01-08T01:38:36.380Z,19.90
2023-01-08T01:41:03.773Z,21.50
2023-01-08T01:43:39.223Z,20.20
2023-01-08T01:46:22.384Z,17.90
2023-01-08T01:48:52.406Z,18.23
2023-01-08T01:51:20.531Z,16.00
2023-01-08T01:53:47.990Z,15.97
2023-01-08T01:56:15.625Z,15.73
2023-01-08T01:58:42.240Z,17.13
2023-01-08T02:01:10.827Z,17.50
2023-01-08T02:03:39.046Z,17.30
2023-01-08T02:06:31.140Z,18.73
2023-01-08T02:09:08.223Z,17.57
2023-01-08T02:11:40.918Z,15.80
2023-01-08T02:14:22.615Z,16.60
2023-01-08T02:17:05.037Z,17.87
2023-01-08T02:19:34.385Z,16.40
2023-01-08T02:22:42.671Z,17.33
2023-01-08T02:25:44.897Z,22.50
2023-01-08T02:28:14.716Z,22.13
2023-01-08T02:30:42.760Z,20.00
2023-01-08T02:33:09.469Z,19.90
2023-01-08T02:35:57.325Z,21.93
2023-01-08T02:38:24.704Z,24.13
2023-01-08T02:40:57.427Z,27.17
2023-01-08T02:43:35.361Z,24.77
2023-01-08T02:46:03.224Z,26.13
2023-01-08T02:48:59.458Z,27.77
2023-01-08T02:51:34.322Z,28.93
2023-01-08T02:54:07.635Z,22.10
2023-01-08T02:56:38.090Z,24.70
2023-01-08T02:59:07.126Z,24.60
2023-01-08T03:01:35.481Z,23.47
2023-01-08T03:04:14.495Z,26.33
2023-01-08T03:06:41.861Z,21.07
2023-01-08T03:09:09.271Z,21.83
2023-01-08T03:11:44.744Z,21.83
2023-01-08T03:14:27.300Z,23.00
2023-01-08T03:17:40.796Z,24.07
2023-01-08T03:20:16.765Z,25.27
2023-01-08T03:22:48.155Z,22.27
2023-01-08T03:25:17.521Z,24.97
2023-01-08T03:27:47.174Z,22.50
2023-01-08T03:30:16.930Z,23.57
2023-01-08T03:32:44.762Z,24.80
2023-01-08T03:35:14.068Z,23.53
2023-01-08T03:37:45.722Z,23.23
2023-01-08T03:40:26.132Z,18.93
2023-01-08T03:42:53.390Z,21.53
2023-01-08T03:45:22.649Z,23.23
2023-01-08T03:47:50.269Z,22.27
2023-01-08T03:50:23.868Z,19.17
2023-01-08T03:52:50.500Z,21.93
2023-01-08T03:55:17.211Z,22.63
2023-01-08T03:57:44.065Z,23.67
2023-01-08T04:00:11.411Z,20.40
2023-01-08T04:02:38.182Z,22.90
2023-01-08T04:05:05.378Z,23.43
2023-01-08T04:07:32.209Z,23.50
2023-01-08T04:09:59.040Z,25.23
2023-01-08T04:12:25.923Z,21.13
2023-01-08T04:14:52.544Z,24.17
2023-01-08T04:17:19.108Z,21.53
2023-01-08T04:19:46.177Z,23.77
2023-01-08T04:22:13.024Z,23.43
2023-01-08T04:24:39.643Z,20.63
2023-01-08T04:27:06.511Z,20.17
2023-01-08T04:29:33.096Z,22.43
2023-01-08T04:32:00.322Z,19.80
2023-01-08T04:34:27.293Z,18.73
2023-01-08T04:36:54.157Z,17.20
2023-01-08T04:39:20.749Z,17.83
2023-01-08T04:41:47.384Z,17.20
2023-01-08T04:44:14.254Z,17.47
2023-01-08T04:46:40.922Z,16.87
2023-01-08T04:49:07.630Z,19.07
2023-01-08T04:51:34.442Z,20.53
2023-01-08T04:54:01.032Z,19.00
2023-01-08T04:56:27.877Z,20.33
2023-01-08T04:58:54.736Z,19.10
2023-01-08T05:01:26.834Z,20.53
2023-01-08T05:04:01.458Z,18.10
2023-01-08T05:06:30.020Z,18.13
2023-01-08T05:08:57.342Z,18.60
2023-01-08T05:11:25.087Z,17.33
2023-01-08T05:13:52.933Z,21.27
2023-01-08T05:16:20.247Z,18.90
2023-01-08T05:18:47.170Z,17.07
2023-01-08T05:21:14.210Z,18.53
2023-01-08T05:23:46.189Z,19.33
2023-01-08T05:26:13.227Z,18.33
2023-01-08T05:28:39.822Z,17.70
2023-01-08T05:31:06.731Z,18.87
2023-01-08T05:33:33.390Z,19.60
2023-01-08T05:36:00.015Z,19.50
2023-01-08T05:38:26.879Z,19.13
2023-01-08T05:40:54.255Z,18.87
2023-01-08T05:43:20.913Z,19.47
2023-01-08T05:45:48.131Z,21.10
2023-01-08T05:48:14.802Z,20.23
2023-01-08T05:50:41.640Z,19.73
2023-01-08T05:53:09.032Z,20.30
2023-01-08T05:55:36.204Z,18.27
2023-01-08T05:58:06.567Z,20.53
2023-01-08T06:00:34.476Z,20.37
2023-01-08T06:03:01.454Z,18.53
2023-01-08T06:05:28.671Z,18.90
2023-01-08T06:07:55.274Z,18.27
2023-01-08T06:10:22.145Z,19.33
2023-01-08T06:12:49.205Z,19.20
2023-01-08T06:15:16.040Z,20.03
2023-01-08T06:17:43.724Z,21.00
2023-01-08T06:20:11.127Z,22.53
2023-01-08T06:22:37.740Z,23.47
2023-01-08T06:25:05.136Z,23.60
2023-01-08T06:27:31.735Z,22.13
2023-01-08T06:29:58.895Z,23.37
2023-01-08T06:32:25.478Z,25.77
2023-01-08T06:34:52.024Z,21.87
2023-01-08T06:37:18.858Z,19.43
2023-01-08T06:39:45.451Z,22.67
2023-01-08T06:42:12.039Z,22.27
2023-01-08T06:44:38.867Z,25.73
2023-01-08T06:47:05.740Z,24.43
2023-01-08T06:49:32.554Z,26.10
2023-01-08T06:51:59.173Z,25.50
2023-01-08T06:54:26.060Z,27.57
2023-01-08T06:56:54.271Z,23.47
2023-01-08T06:59:21.265Z,27.50
2023-01-08T07:01:48.216Z,23.93
2023-01-08T07:04:14.938Z,26.53
2023-01-08T07:06:41.797Z,25.27
2023-01-08T07:09:12.751Z,25.77
2023-01-08T07:11:40.388Z,22.97
2023-01-08T07:14:07.243Z,23.93
2023-01-08T07:16:34.307Z,25.63
2023-01-08T07:19:00.910Z,23.53
2023-01-08T07:21:27.872Z,24.73
2023-01-08T07:23:54.548Z,21.97
2023-01-08T07:26:21.372Z,24.93
2023-01-08T07:28:48.225Z,21.23
2023-01-08T07:31:14.916Z,21.23
2023-01-08T07:33:41.856Z,22.83
2023-01-08T07:36:08.922Z,21.70
2023-01-08T07:38:35.788Z,23.27
2023-01-08T07:41:02.461Z,21.60
2023-01-08T07:43:30.080Z,19.00
2023-01-08T07:45:57.860Z,20.13
2023-01-08T07:48:24.481Z,20.47
2023-01-08T07:50:51.235Z,22.57
2023-01-08T07:53:18.230Z,25.87
2023-01-08T07:55:45.156Z,25.20
2023-01-08T07:58:14.776Z,22.07
2023-01-08T08:00:42.054Z,19.83
2023-01-08T08:03:11.601Z,21.03
2023-01-08T08:05:56.572Z,20.50
2023-01-08T08:08:23.152Z,20.83
2023-01-08T08:10:50.005Z,19.20
2023-01-08T08:13:16.611Z,18.47
2023-01-08T08:15:43.301Z,18.43
2023-01-08T08:18:10.515Z,22.27
2023-01-08T08:20:37.879Z,17.40
2023-01-08T08:23:14.004Z,21.00
2023-01-08T08:25:42.120Z,20.23
2023-01-08T08:28:10.602Z,17.67
2023-01-08T08:30:39.495Z,19.97
2023-01-08T08:33:08.017Z,19.80
2023-01-08T08:35:35.302Z,17.77
2023-01-08T08:38:02.183Z,16.30
2023-01-08T08:40:29.004Z,15.70
2023-01-08T08:43:00.713Z,14.93
2023-01-08T08:45:28.202Z,15.50
2023-01-08T08:47:55.205Z,15.57
2023-01-08T08:50:22.548Z,15.43
2023-01-08T08:52:49.193Z,16.00
2023-01-08T08:55:17.388Z,15.87
2023-01-08T08:57:46.335Z,14.33
2023-01-08T09:00:14.436Z,14.37
2023-01-08T09:02:41.405Z,14.03
2023-01-08T09:05:08.513Z,14.57
2023-01-08T09:07:35.684Z,13.63
2023-01-08T09:10:02.519Z,13.97
2023-01-08T09:12:29.445Z,13.00
2023-01-08T09:14:57.385Z,14.00
2023-01-08T09:17:25.726Z,16.00
2023-01-08T09:19:52.485Z,14.13
2023-01-08T09:22:19.584Z,16.17
2023-01-08T09:24:46.526Z,15.47
2023-01-08T09:27:13.993Z,14.80
2023-01-08T09:29:40.703Z,13.53
2023-01-08T09:32:08.077Z,13.70
2023-01-08T09:34:36.288Z,12.93
2023-01-08T09:37:04.039Z,13.10
2023-01-08T09:39:30.895Z,12.83
2023-01-08T09:42:01.342Z,13.70
2023-01-08T09:44:32.440Z,16.30
2023-01-08T09:47:00.821Z,14.37
2023-01-08T09:49:48.947Z,15.40
2023-01-08T09:52:16.195Z,12.97
2023-01-08T09:54:43.744Z,12.57
2023-01-08T09:57:19.209Z,11.63
2023-01-08T09:59:48.161Z,10.70
2023-01-08T10:02:21.615Z,11.90
2023-01-08T10:04:58.062Z,9.77
2023-01-08T10:07:26.488Z,12.00
2023-01-08T10:09:54.145Z,11.57
2023-01-08T10:12:32.052Z,14.23
2023-01-08T10:15:02.992Z,12.50
2023-01-08T10:17:44.229Z,9.47
2023-01-08T10:20:20.309Z,13.33
2023-01-08T10:22:48.315Z,10.87
2023-01-08T10:25:24.901Z,10.70
2023-01-08T10:27:59.303Z,8.63
2023-01-08T10:30:36.179Z,8.33
2023-01-08T10:33:06.214Z,8.00
2023-01-08T10:35:39.236Z,8.57
2023-01-08T10:38:06.507Z,7.90
2023-01-08T10:40:48.286Z,6.40
2023-01-08T10:43:31.261Z,7.23
2023-01-08T10:46:08.901Z,5.80
2023-01-08T10:48:46.456Z,5.73
2023-01-08T10:51:20.274Z,5.47
2023-01-08T10:53:47.859Z,7.33
2023-01-08T10:56:40.107Z,4.57
2023-01-08T10:59:17.627Z,4.30
2023-01-08T11:01:47.838Z,4.80
2023-01-08T11:04:41.964Z,4.07
2023-01-08T11:07:21.509Z,5.83
2023-01-08T11:09:51.743Z,4.07
2023-01-08T11:12:40.460Z,3.40
2023-01-08T11:15:34.118Z,4.27
2023-01-08T11:18:17.436Z,7.67
2023-01-08T11:20:45.145Z,4.93
2023-01-08T11:23:23.587Z,4.47
2023-01-08T11:26:26.652Z,3.97
2023-01-08T11:29:03.967Z,4.20
2023-01-08T11:31:56.066Z,4.27
2023-01-08T11:34:25.491Z,4.47
2023-01-08T11:37:04.458Z,4.93
2023-01-08T11:39:33.039Z,6.80
2023-01-08T11:42:22.151Z,5.83
2023-01-08T11:45:21.017Z,6.10
2023-01-08T11:47:54.945Z,6.30
2023-01-08T11:50:35.245Z,6.20
2023-01-08T11:53:22.727Z,7.80
2023-01-08T11:56:33.000Z,6.67
2023-01-08T11:59:05.584Z,6.77
2023-01-08T12:01:53.793Z,6.40
2023-01-08T12:05:14.209Z,9.17
2023-01-08T12:07:50.691Z,6.73
2023-01-08T12:10:38.749Z,8.07
2023-01-08T12:13:20.694Z,8.30
2023-01-08T12:16:04.498Z,8.73
2023-01-08T12:18:49.101Z,8.73
2023-01-08T12:21:30.479Z,7.57
2023-01-08T12:23:57.013Z,5.67
2023-01-08T12:26:28.651Z,10.93
2023-01-08T12:29:26.091Z,8.27
2023-01-08T12:32:28.435Z,11.13
2023-01-08T12:35:29.887Z,15.77
2023-01-08T12:38:05.806Z,9.90
2023-01-08T12:40:35.377Z,8.17
2023-01-08T12:43:08.063Z,6.23
2023-01-08T12:45:46.708Z,4.17
2023-01-08T12:48:23.072Z,5.73
2023-01-08T12:50:55.479Z,4.87
2023-01-08T12:53:43.582Z,4.27
2023-01-08T12:56:24.095Z,4.10
2023-01-08T12:58:59.835Z,4.80
2023-01-08T13:01:45.688Z,4.57
2023-01-08T13:04:14.041Z,5.30
2023-01-08T13:07:02.216Z,4.00
2023-01-08T13:09:30.040Z,4.73
2023-01-08T13:11:58.481Z,5.23
2023-01-08T13:14:27.441Z,4.70
2023-01-08T13:17:07.819Z,6.83
2023-01-08T13:19:42.998Z,6.37
2023-01-08T13:22:24.930Z,8.83
2023-01-08T13:24:51.947Z,9.17
2023-01-08T13:27:18.509Z,7.63
2023-01-08T13:29:50.638Z,7.93
2023-01-08T13:32:46.874Z,8.93
2023-01-08T13:35:16.849Z,9.20
2023-01-08T13:37:46.693Z,10.87
2023-01-08T13:40:36.509Z,10.00
2023-01-08T13:43:05.571Z,12.20
2023-01-08T13:45:33.096Z,16.83
2023-01-08T13:48:06.380Z,12.43
2023-01-08T13:50:34.868Z,10.17
2023-01-08T13:53:03.962Z,10.40
2023-01-08T13:55:39.993Z,9.73
2023-01-08T13:58:34.030Z,13.50
2023-01-08T14:01:02.372Z,11.17
2023-01-08T14:03:35.869Z,13.13
2023-01-08T14:06:37.017Z,12.33
2023-01-08T14:09:05.263Z,11.67
2023-01-08T14:11:44.546Z,10.83
2023-01-08T14:14:17.298Z,13.90
2023-01-08T14:16:45.152Z,11.17
2023-01-08T14:19:17.802Z,10.20
2023-01-08T14:21:59.453Z,8.57
2023-01-08T14:24:27.588Z,7.37
2023-01-08T14:26:57.043Z,6.87
2023-01-08T14:29:26.327Z,8.00
2023-01-08T14:31:56.488Z,7.93
2023-01-08T14:34:26.389Z,6.73
2023-01-08T14:36:55.915Z,8.37
2023-01-08T14:39:25.290Z,7.10
2023-01-08T14:42:13.349Z,7.43
2023-01-08T14:44:42.545Z,7.03
2023-01-08T14:47:19.586Z,6.27
2023-01-08T14:49:53.590Z,6.90
2023-01-08T14:52:21.196Z,6.20
2023-01-08T14:54:51.282Z,5.77
2023-01-08T14:57:19.652Z,5.67
2023-01-08T15:00:13.313Z,5.27
2023-01-08T15:02:40.296Z,5.67
2023-01-08T15:05:20.308Z,5.90
2023-01-08T15:08:17.681Z,5.67
2023-01-08T15:10:44.291Z,10.67
2023-01-08T15:13:24.969Z,18.27
2023-01-08T15:15:59.332Z,8.00
2023-01-08T15:18:26.836Z,7.93
2023-01-08T15:20:54.577Z,9.13
2023-01-08T15:23:28.553Z,8.17
2023-01-08T15:25:57.065Z,13.13
2023-01-08T15:28:25.098Z,8.47
2023-01-08T15:30:52.065Z,5.80
2023-01-08T15:33:18.679Z,5.03
2023-01-08T15:35:45.987Z,10.27
2023-01-08T15:38:13.588Z,9.97
2023-01-08T15:40:40.765Z,5.60
2023-01-08T15:43:14.627Z,5.53
2023-01-08T15:45:47.855Z,4.57
2023-01-08T15:48:15.082Z,5.43
2023-01-08T15:50:44.366Z,5.90
2023-01-08T15:53:18.507Z,5.83
2023-01-08T15:55:46.802Z,6.33
2023-01-08T15:58:14.282Z,6.77
2023-01-08T16:00:42.638Z,6.67
2023-01-08T16:03:30.347Z,8.27
2023-01-08T16:05:57.256Z,8.00
2023-01-08T16:08:23.876Z,9.93
2023-01-08T16:10:53.933Z,12.10
2023-01-08T16:13:20.743Z,11.80
2023-01-08T16:15:48.738Z,10.83
2023-01-08T16:18:15.596Z,12.67
2023-01-08T16:20:42.224Z,12.57
2023-01-08T16:23:09.092Z,10.83
2023-01-08T16:25:38.146Z,13.50
2023-01-08T16:28:05.211Z,12.83
2023-01-08T16:30:31.841Z,15.27
2023-01-08T16:32:58.710Z,14.90
2023-01-08T16:35:25.415Z,16.17
2023-01-08T16:37:52.075Z,13.67
2023-01-08T16:40:19.196Z,12.27
2023-01-08T16:42:46.046Z,14.30
2023-01-08T16:45:12.917Z,14.23
2023-01-08T16:47:39.636Z,12.87
2023-01-08T16:50:07.464Z,14.23
2023-01-08T16:52:34.316Z,18.00
2023-01-08T16:55:01.024Z,17.83
2023-01-08T16:57:27.886Z,14.80
2023-01-08T16:59:54.599Z,20.87
2023-01-08T17:02:21.695Z,29.03
2023-01-08T17:04:48.304Z,39.53
2023-01-08T17:07:15.014Z,16.87
2023-01-08T17:09:41.783Z,16.10
2023-01-08T17:12:08.391Z,16.03
2023-01-08T17:14:36.539Z,19.80
2023-01-08T17:17:03.257Z,24.80
2023-01-08T17:19:30.114Z,23.10
2023-01-08T17:21:56.756Z,19.63
2023-01-08T17:24:23.361Z,23.90
2023-01-08T17:26:50.221Z,16.53
2023-01-08T17:29:16.875Z,23.87
2023-01-08T17:31:43.775Z,20.40
2023-01-08T17:34:14.052Z,17.17
2023-01-08T17:36:41.199Z,18.30
2023-01-08T17:39:08.039Z,19.60
2023-01-08T17:41:57.120Z,17.90
2023-01-08T17:44:26.202Z,17.67
2023-01-08T17:46:52.849Z,17.70
2023-01-08T17:49:20.063Z,25.60
2023-01-08T17:51:46.724Z,16.53
2023-01-08T17:54:15.383Z,18.87
2023-01-08T17:56:42.697Z,18.47
2023-01-08T17:59:13.638Z,21.73
2023-01-08T18:01:40.553Z,20.27
2023-01-08T18:04:07.646Z,18.90
2023-01-08T18:06:34.944Z,21.70
2023-01-08T18:09:01.984Z,19.10
2023-01-08T18:11:28.744Z,18.97
2023-01-08T18:14:00.670Z,21.77
2023-01-08T18:16:28.222Z,19.50
2023-01-08T18:18:59.406Z,17.73
2023-01-08T18:21:27.781Z,17.63
2023-01-08T18:23:54.534Z,18.13
2023-01-08T18:26:22.215Z,15.00
2023-01-08T18:28:50.769Z,18.03
2023-01-08T18:31:17.874Z,19.00
2023-01-08T18:33:44.588Z,20.17
2023-01-08T18:36:12.842Z,20.37
2023-01-08T18:38:42.133Z,28.93
2023-01-08T18:41:10.840Z,21.97
2023-01-08T18:43:38.259Z,23.93
2023-01-08T18:46:07.227Z,23.20
2023-01-08T18:48:35.357Z,24.70
2023-01-08T18:51:05.665Z,22.67
2023-01-08T18:53:33.765Z,24.90
2023-01-08T18:56:01.336Z,25.03
2023-01-08T18:58:29.353Z,27.20
2023-01-08T19:00:56.202Z,23.70
2023-01-08T19:03:23.362Z,24.97
2023-01-08T19:05:50.081Z,22.07
2023-01-08T19:08:16.736Z,20.47
2023-01-08T19:10:43.339Z,23.77
2023-01-08T19:13:10.460Z,29.67
2023-01-08T19:15:37.182Z,25.47
2023-01-08T19:18:06.295Z,29.50
2023-01-08T19:20:33.306Z,22.07
2023-01-08T19:22:59.945Z,20.73
2023-01-08T19:25:27.371Z,18.93
2023-01-08T19:30:41.463Z,18.60
2023-01-08T19:33:09.017Z,20.37
2023-01-08T19:35:39.722Z,22.00
2023-01-08T19:38:06.981Z,20.43
2023-01-08T19:40:33.728Z,21.07
2023-01-08T19:43:19.485Z,20.03
2023-01-08T19:45:46.160Z,20.37
2023-01-08T19:48:13.466Z,23.30
2023-01-08T19:50:40.579Z,23.10
2023-01-08T19:53:07.671Z,20.70
2023-01-08T19:55:37.496Z,23.60
2023-01-08T19:58:04.276Z,22.47
2023-01-08T20:00:37.267Z,20.63
2023-01-08T20:03:04.775Z,20.47
2023-01-08T20:05:31.852Z,22.47
2023-01-08T20:07:58.484Z,21.90
2023-01-08T20:10:25.096Z,22.23
2023-01-08T20:12:51.741Z,21.50
2023-01-08T20:15:19.169Z,22.53
2023-01-08T20:17:45.760Z,24.17
2023-01-08T20:20:12.486Z,21.90
2023-01-08T20:22:39.139Z,25.40
2023-01-08T20:25:06.544Z,23.33
2023-01-08T20:27:33.284Z,23.80
2023-01-08T20:30:00.800Z,26.03
2023-01-08T20:32:27.419Z,28.67
2023-01-08T20:34:54.183Z,23.20
2023-01-08T20:37:21.227Z,27.67
2023-01-08T20:39:48.012Z,29.27
2023-01-08T20:42:22.034Z,24.43
2023-01-08T20:44:54.040Z,23.80
2023-01-08T20:47:20.652Z,26.70
2023-01-08T20:49:47.693Z,26.17
2023-01-08T20:52:16.267Z,27.27
2023-01-08T20:54:43.172Z,29.87
2023-01-08T20:57:10.313Z,29.97
2023-01-08T20:59:36.933Z,26.10
2023-01-08T21:02:04.039Z,24.60
2023-01-08T21:04:31.139Z,22.27
2023-01-08T21:06:57.792Z,19.77
2023-01-08T21:09:24.877Z,22.53
2023-01-08T21:11:51.452Z,24.70
2023-01-08T21:14:18.138Z,20.97
2023-01-08T21:16:45.327Z,23.37
2023-01-08T21:19:12.494Z,23.37
2023-01-08T21:21:40.686Z,25.00
2023-01-08T21:24:09.257Z,20.40
2023-01-08T21:26:37.771Z,21.83
2023-01-08T21:29:08.154Z,21.47
2023-01-08T21:31:36.101Z,23.67
2023-01-08T21:34:04.548Z,26.67
2023-01-08T21:36:31.966Z,25.43
2023-01-08T21:39:00.839Z,31.90
2023-01-08T21:41:48.059Z,31.37
2023-01-08T21:44:36.920Z,30.90
2023-01-08T21:47:06.209Z,28.43
2023-01-08T21:49:33.399Z,33.30
2023-01-08T21:52:18.820Z,33.70
2023-01-08T21:54:45.488Z,35.80
2023-01-08T21:57:12.670Z,34.93
2023-01-08T21:59:39.715Z,36.90
2023-01-08T22:02:06.695Z,35.40
2023-01-08T22:04:34.196Z,36.50
2023-01-08T22:07:01.248Z,33.17
2023-01-08T22:09:27.874Z,37.47
2023-01-08T22:11:55.906Z,38.60
2023-01-08T22:14:23.125Z,39.83
2023-01-08T22:16:50.148Z,35.57
2023-01-08T22:19:17.386Z,39.00
2023-01-08T22:21:44.586Z,41.90
2023-01-08T22:24:11.379Z,39.53
2023-01-08T22:26:38.551Z,38.30
2023-01-08T22:29:08.544Z,40.67
2023-01-08T22:31:35.321Z,31.40
2023-01-08T22:34:01.954Z,31.80
2023-01-08T22:36:29.009Z,31.47
2023-01-08T22:38:55.613Z,29.43
2023-01-08T22:41:24.242Z,23.90
2023-01-08T22:43:56.378Z,22.73
2023-01-08T22:46:24.550Z,24.73
2023-01-08T22:48:51.622Z,26.53
2023-01-08T22:51:21.802Z,26.70
2023-01-08T22:53:48.367Z,27.27
2023-01-08T22:56:15.016Z,26.57
2023-01-08T22:58:45.353Z,27.97
2023-01-08T23:01:16.234Z,26.97
2023-01-08T23:03:44.702Z,26.27
2023-01-08T23:06:16.128Z,26.47
2023-01-08T23:08:44.434Z,28.43
2023-01-08T23:11:12.989Z,23.30
2023-01-08T23:13:40.654Z,20.90
2023-01-08T23:16:09.675Z,19.57
2023-01-08T23:18:37.334Z,19.53
2023-01-08T23:21:05.789Z,19.57
2023-01-08T23:23:32.905Z,17.53
2023-01-08T23:26:08.813Z,16.80
2023-01-08T23:28:35.930Z,15.70
2023-01-08T23:31:09.639Z,14.43
2023-01-08T23:33:36.937Z,16.30
2023-01-08T23:36:04.186Z,18.10
2023-01-08T23:38:31.041Z,18.30
2023-01-08T23:40:59.902Z,18.07
2023-01-08T23:43:26.655Z,15.70
2023-01-08T23:45:54.425Z,15.53
2023-01-08T23:48:21.130Z,16.70
2023-01-08T23:50:47.798Z,14.13
2023-01-08T23:53:14.826Z,15.50
2023-01-08T23:55:41.756Z,14.70
2023-01-08T23:58:09.588Z,17.27
